메인 페이지
METAR-TAF:

METAR-TAF

공항 :

코퍼스크리스티, 텍사스, 미국

위도: 27-41-19N, 경도: 097-17-30W, 고도: 5m

현재 날씨관측

예보는 1 시간 4분 전, 19:56시(UTC)에 발표되었습니다.
8kt
온도 32°C
습도 67%
기압 1011 hPa
시정: 12.9km
고도 1700ft 상공 구름 보통

METAR: KNGP 181956Z AUTO 10008KT 8SM SCT017 32/25 A2984 RMK AO2 SLP105 T03220250 $

시각: 16:00 (21:00 UTC)

예보

예보 대상 시간: 18일 15시부터 19일 15시까지 (UTC)
동북동8kt
시정 10km 이상
고도 1200ft 상공 구름 보통
고도 25000ft 상공 구름 많음
18일 1900시부터 (UTC)
9kt
시정 10km 이상
고도 3500ft 상공 구름 조금
19일 0200시부터 (UTC)
동남동8kt
시정 10km 이상
고도 2000ft 상공 구름 조금
19일 1200시부터 (UTC)
여러 방향의 바람 3kt
시정: 2012m
고도 2000ft 상공 구름 보통

TAF: KNGP 1815/1915 06008KT 9999 SCT012 BKN250 QNH2986INS FM181900 09009KT 9999 FEW035 QNH2982INS FM190200 12008KT 9999 FEW020 QNH2984INS FM191200 VRB03KT 9999 SCT020 QNH2990INS AUTOMATED SENSOR METWATCH 1815 TIL 2012 TX29/1817Z TN25/1907Z FN00268

4,000개 이상의 공항 관측 자료 및 예보 (METAR 및 TAF 보고).

지도상에서 검색 가능한 기상관측소가 노란 점과 빨간 점으로 표시되어 있습니다.

기상관측소 명을 보려면 표시 위로 마우스를 이동하세요.

날씨 관측과 예보를 보려면 클릭하세요.

지도 변경 : 확대하려면 엑스 표시가 있는 녹색 버튼, 축소하려면 빼기 표시가 있는 녹색 버튼, 다음 페이지의 지도를 보려면 녹색 화살표를 클릭하세요.


METAR-TAF: